sensor_id;sensor_type;location;lat;lon;timestamp;temperature;humidity
65038;DHT22;51605;47.040;15.294;2023-07-20T00:02:16;25.20;52.90
65038;DHT22;51605;47.040;15.294;2023-07-20T00:04:42;25.20;52.90
65038;DHT22;51605;47.040;15.294;2023-07-20T00:07:08;25.20;53.80
65038;DHT22;51605;47.040;15.294;2023-07-20T00:09:33;25.20;52.80
65038;DHT22;51605;47.040;15.294;2023-07-20T00:11:59;25.20;52.80
65038;DHT22;51605;47.040;15.294;2023-07-20T00:14:25;25.20;52.80
65038;DHT22;51605;47.040;15.294;2023-07-20T00:16:51;25.20;52.80
65038;DHT22;51605;47.040;15.294;2023-07-20T00:19:24;25.20;52.80
65038;DHT22;51605;47.040;15.294;2023-07-20T00:21:50;25.20;52.70
65038;DHT22;51605;47.040;15.294;2023-07-20T00:24:16;25.20;52.70
65038;DHT22;51605;47.040;15.294;2023-07-20T00:26:41;25.20;52.70
65038;DHT22;51605;47.040;15.294;2023-07-20T00:29:07;25.20;52.70
65038;DHT22;51605;47.040;15.294;2023-07-20T00:31:32;25.20;52.60
65038;DHT22;51605;47.040;15.294;2023-07-20T00:34:00;25.20;52.70
65038;DHT22;51605;47.040;15.294;2023-07-20T00:36:25;25.20;52.60
65038;DHT22;51605;47.040;15.294;2023-07-20T00:38:51;25.20;52.60
65038;DHT22;51605;47.040;15.294;2023-07-20T00:41:16;25.20;52.60
65038;DHT22;51605;47.040;15.294;2023-07-20T00:43:42;25.20;52.60
65038;DHT22;51605;47.040;15.294;2023-07-20T00:46:08;25.20;52.50
65038;DHT22;51605;47.040;15.294;2023-07-20T00:48:34;25.20;52.60
65038;DHT22;51605;47.040;15.294;2023-07-20T00:51:00;25.20;52.60
65038;DHT22;51605;47.040;15.294;2023-07-20T00:53:27;25.20;52.60
65038;DHT22;51605;47.040;15.294;2023-07-20T00:55:52;25.30;52.60
65038;DHT22;51605;47.040;15.294;2023-07-20T00:58:18;25.30;52.60
65038;DHT22;51605;47.040;15.294;2023-07-20T01:00:44;25.20;52.60
65038;DHT22;51605;47.040;15.294;2023-07-20T01:03:09;25.20;52.60
65038;DHT22;51605;47.040;15.294;2023-07-20T01:05:38;25.20;52.60
65038;DHT22;51605;47.040;15.294;2023-07-20T01:08:07;25.20;52.50
65038;DHT22;51605;47.040;15.294;2023-07-20T01:10:42;25.20;52.60
65038;DHT22;51605;47.040;15.294;2023-07-20T01:13:09;25.20;52.60
65038;DHT22;51605;47.040;15.294;2023-07-20T01:15:35;25.20;52.50
65038;DHT22;51605;47.040;15.294;2023-07-20T01:18:00;25.20;52.50
65038;DHT22;51605;47.040;15.294;2023-07-20T01:20:30;25.20;52.60
65038;DHT22;51605;47.040;15.294;2023-07-20T01:32:47;25.20;52.50
65038;DHT22;51605;47.040;15.294;2023-07-20T01:35:13;25.20;52.50
65038;DHT22;51605;47.040;15.294;2023-07-20T01:37:40;25.20;52.60
65038;DHT22;51605;47.040;15.294;2023-07-20T01:40:06;25.20;52.50
65038;DHT22;51605;47.040;15.294;2023-07-20T01:42:32;25.20;52.50
65038;DHT22;51605;47.040;15.294;2023-07-20T01:44:58;25.20;52.60
65038;DHT22;51605;47.040;15.294;2023-07-20T01:47:23;25.20;52.50
65038;DHT22;51605;47.040;15.294;2023-07-20T01:49:49;25.20;52.60
65038;DHT22;51605;47.040;15.294;2023-07-20T01:52:14;25.20;52.40
65038;DHT22;51605;47.040;15.294;2023-07-20T01:54:40;25.20;52.50
65038;DHT22;51605;47.040;15.294;2023-07-20T01:57:06;25.20;52.40
65038;DHT22;51605;47.040;15.294;2023-07-20T01:59:31;25.20;52.40
65038;DHT22;51605;47.040;15.294;2023-07-20T02:01:57;25.20;52.40
65038;DHT22;51605;47.040;15.294;2023-07-20T02:04:22;25.20;52.40
65038;DHT22;51605;47.040;15.294;2023-07-20T02:06:48;25.20;52.40
65038;DHT22;51605;47.040;15.294;2023-07-20T02:09:13;25.20;52.50
65038;DHT22;51605;47.040;15.294;2023-07-20T02:11:39;25.20;52.50
65038;DHT22;51605;47.040;15.294;2023-07-20T02:14:05;25.20;52.40
65038;DHT22;51605;47.040;15.294;2023-07-20T02:16:30;25.20;52.40
65038;DHT22;51605;47.040;15.294;2023-07-20T02:18:56;25.20;52.50
65038;DHT22;51605;47.040;15.294;2023-07-20T02:21:22;25.20;52.50
65038;DHT22;51605;47.040;15.294;2023-07-20T02:23:48;25.20;52.50
65038;DHT22;51605;47.040;15.294;2023-07-20T02:26:13;25.10;52.50
65038;DHT22;51605;47.040;15.294;2023-07-20T02:28:39;25.10;52.40
65038;DHT22;51605;47.040;15.294;2023-07-20T02:31:04;25.10;52.50
65038;DHT22;51605;47.040;15.294;2023-07-20T02:33:30;25.10;52.50
65038;DHT22;51605;47.040;15.294;2023-07-20T02:35:55;25.10;52.60
65038;DHT22;51605;47.040;15.294;2023-07-20T02:38:21;25.10;52.50
65038;DHT22;51605;47.040;15.294;2023-07-20T02:40:46;25.10;52.40
65038;DHT22;51605;47.040;15.294;2023-07-20T02:43:12;25.20;52.40
65038;DHT22;51605;47.040;15.294;2023-07-20T02:45:40;25.10;52.40
65038;DHT22;51605;47.040;15.294;2023-07-20T02:48:08;25.10;52.40
65038;DHT22;51605;47.040;15.294;2023-07-20T02:50:33;25.10;52.40
65038;DHT22;51605;47.040;15.294;2023-07-20T02:53:00;25.10;52.40
65038;DHT22;51605;47.040;15.294;2023-07-20T02:55:25;25.10;52.40
65038;DHT22;51605;47.040;15.294;2023-07-20T02:57:51;25.10;52.40
65038;DHT22;51605;47.040;15.294;2023-07-20T03:00:16;25.10;52.40
65038;DHT22;51605;47.040;15.294;2023-07-20T03:02:45;25.10;52.50
65038;DHT22;51605;47.040;15.294;2023-07-20T03:05:15;25.10;52.50
65038;DHT22;51605;47.040;15.294;2023-07-20T03:07:42;25.10;52.50
65038;DHT22;51605;47.040;15.294;2023-07-20T03:10:08;25.10;52.40
65038;DHT22;51605;47.040;15.294;2023-07-20T03:12:35;25.20;52.40
65038;DHT22;51605;47.040;15.294;2023-07-20T03:15:01;25.10;52.30
65038;DHT22;51605;47.040;15.294;2023-07-20T03:17:26;25.10;52.30
65038;DHT22;51605;47.040;15.294;2023-07-20T03:19:52;25.10;52.30
65038;DHT22;51605;47.040;15.294;2023-07-20T03:22:18;25.10;52.30
65038;DHT22;51605;47.040;15.294;2023-07-20T03:24:43;25.10;52.30
65038;DHT22;51605;47.040;15.294;2023-07-20T03:27:09;25.10;52.40
65038;DHT22;51605;47.040;15.294;2023-07-20T03:29:34;25.10;52.30
65038;DHT22;51605;47.040;15.294;2023-07-20T03:32:00;25.10;52.30
65038;DHT22;51605;47.040;15.294;2023-07-20T03:34:26;25.10;52.30
65038;DHT22;51605;47.040;15.294;2023-07-20T03:36:51;25.10;52.20
65038;DHT22;51605;47.040;15.294;2023-07-20T03:39:17;25.10;52.30
65038;DHT22;51605;47.040;15.294;2023-07-20T03:41:42;25.10;52.30
65038;DHT22;51605;47.040;15.294;2023-07-20T03:44:08;25.10;52.40
65038;DHT22;51605;47.040;15.294;2023-07-20T03:46:34;25.10;52.30
65038;DHT22;51605;47.040;15.294;2023-07-20T03:48:59;25.10;52.40
65038;DHT22;51605;47.040;15.294;2023-07-20T03:51:25;25.10;52.40
65038;DHT22;51605;47.040;15.294;2023-07-20T03:53:51;25.10;52.40
65038;DHT22;51605;47.040;15.294;2023-07-20T03:56:16;25.10;52.40
65038;DHT22;51605;47.040;15.294;2023-07-20T03:58:42;25.10;52.40
65038;DHT22;51605;47.040;15.294;2023-07-20T04:01:07;25.10;52.40
65038;DHT22;51605;47.040;15.294;2023-07-20T04:03:33;25.10;52.40
65038;DHT22;51605;47.040;15.294;2023-07-20T04:05:59;25.10;52.30
65038;DHT22;51605;47.040;15.294;2023-07-20T04:08:24;25.10;52.30
65038;DHT22;51605;47.040;15.294;2023-07-20T04:10:50;25.10;52.30
65038;DHT22;51605;47.040;15.294;2023-07-20T04:13:15;25.10;52.30
65038;DHT22;51605;47.040;15.294;2023-07-20T04:15:41;25.10;52.30
65038;DHT22;51605;47.040;15.294;2023-07-20T04:18:07;25.10;52.30
65038;DHT22;51605;47.040;15.294;2023-07-20T04:20:32;25.10;52.30
65038;DHT22;51605;47.040;15.294;2023-07-20T04:22:58;25.10;52.30
65038;DHT22;51605;47.040;15.294;2023-07-20T04:25:24;25.10;52.20
65038;DHT22;51605;47.040;15.294;2023-07-20T04:27:49;25.10;52.20
65038;DHT22;51605;47.040;15.294;2023-07-20T04:30:16;25.10;52.20
65038;DHT22;51605;47.040;15.294;2023-07-20T04:32:44;25.10;52.10
65038;DHT22;51605;47.040;15.294;2023-07-20T04:35:25;25.10;52.30
65038;DHT22;51605;47.040;15.294;2023-07-20T04:37:56;25.10;52.30
65038;DHT22;51605;47.040;15.294;2023-07-20T04:40:22;25.10;52.30
65038;DHT22;51605;47.040;15.294;2023-07-20T04:42:47;25.10;52.30
65038;DHT22;51605;47.040;15.294;2023-07-20T04:45:13;25.10;52.10
65038;DHT22;51605;47.040;15.294;2023-07-20T04:47:39;25.10;52.10
65038;DHT22;51605;47.040;15.294;2023-07-20T04:50:04;25.10;52.20
65038;DHT22;51605;47.040;15.294;2023-07-20T04:52:30;25.10;52.20
65038;DHT22;51605;47.040;15.294;2023-07-20T04:54:56;25.10;52.20
65038;DHT22;51605;47.040;15.294;2023-07-20T04:57:23;25.10;52.20
65038;DHT22;51605;47.040;15.294;2023-07-20T04:59:48;25.10;52.30
65038;DHT22;51605;47.040;15.294;2023-07-20T05:02:14;25.00;52.10
65038;DHT22;51605;47.040;15.294;2023-07-20T05:04:39;25.00;52.20
65038;DHT22;51605;47.040;15.294;2023-07-20T05:07:05;25.00;52.10
65038;DHT22;51605;47.040;15.294;2023-07-20T05:09:31;25.00;52.20
65038;DHT22;51605;47.040;15.294;2023-07-20T05:11:56;25.10;52.20
65038;DHT22;51605;47.040;15.294;2023-07-20T05:14:22;25.00;52.10
65038;DHT22;51605;47.040;15.294;2023-07-20T05:16:47;25.00;52.10
65038;DHT22;51605;47.040;15.294;2023-07-20T05:19:13;25.00;52.10
65038;DHT22;51605;47.040;15.294;2023-07-20T05:21:39;25.10;52.20
65038;DHT22;51605;47.040;15.294;2023-07-20T05:24:04;25.10;52.10
65038;DHT22;51605;47.040;15.294;2023-07-20T05:26:30;25.10;53.10
65038;DHT22;51605;47.040;15.294;2023-07-20T05:28:56;25.00;52.10
65038;DHT22;51605;47.040;15.294;2023-07-20T05:31:21;25.00;52.10
65038;DHT22;51605;47.040;15.294;2023-07-20T05:33:47;25.00;52.10
65038;DHT22;51605;47.040;15.294;2023-07-20T05:36:25;25.00;52.10
65038;DHT22;51605;47.040;15.294;2023-07-20T05:38:50;25.00;52.10
65038;DHT22;51605;47.040;15.294;2023-07-20T05:41:16;25.00;52.10
65038;DHT22;51605;47.040;15.294;2023-07-20T05:43:41;25.10;52.10
65038;DHT22;51605;47.040;15.294;2023-07-20T05:46:07;25.00;52.00
65038;DHT22;51605;47.040;15.294;2023-07-20T05:48:33;25.00;52.00
65038;DHT22;51605;47.040;15.294;2023-07-20T05:50:58;25.00;52.10
65038;DHT22;51605;47.040;15.294;2023-07-20T05:53:24;25.00;52.10
65038;DHT22;51605;47.040;15.294;2023-07-20T05:55:53;25.00;52.10
65038;DHT22;51605;47.040;15.294;2023-07-20T05:58:19;25.00;52.10
65038;DHT22;51605;47.040;15.294;2023-07-20T06:00:47;25.00;52.10
65038;DHT22;51605;47.040;15.294;2023-07-20T06:03:12;25.00;52.10
65038;DHT22;51605;47.040;15.294;2023-07-20T06:05:38;25.00;52.00
65038;DHT22;51605;47.040;15.294;2023-07-20T06:08:03;25.00;52.10
65038;DHT22;51605;47.040;15.294;2023-07-20T06:10:29;25.00;52.00
65038;DHT22;51605;47.040;15.294;2023-07-20T06:12:54;25.00;52.00
65038;DHT22;51605;47.040;15.294;2023-07-20T06:15:25;25.10;52.90
65038;DHT22;51605;47.040;15.294;2023-07-20T06:17:51;25.10;51.90
65038;DHT22;51605;47.040;15.294;2023-07-20T06:20:16;25.10;51.80
65038;DHT22;51605;47.040;15.294;2023-07-20T06:22:42;25.10;51.70
65038;DHT22;51605;47.040;15.294;2023-07-20T06:25:07;25.10;51.70
65038;DHT22;51605;47.040;15.294;2023-07-20T06:27:33;25.10;51.70
65038;DHT22;51605;47.040;15.294;2023-07-20T06:29:58;25.10;51.70
65038;DHT22;51605;47.040;15.294;2023-07-20T06:32:24;25.10;51.70
65038;DHT22;51605;47.040;15.294;2023-07-20T06:34:49;25.10;51.70
65038;DHT22;51605;47.040;15.294;2023-07-20T06:37:15;25.10;51.70
65038;DHT22;51605;47.040;15.294;2023-07-20T06:39:40;25.10;51.80
65038;DHT22;51605;47.040;15.294;2023-07-20T06:42:06;25.10;51.80
65038;DHT22;51605;47.040;15.294;2023-07-20T06:44:32;25.10;51.90
65038;DHT22;51605;47.040;15.294;2023-07-20T06:46:57;25.10;51.90
65038;DHT22;51605;47.040;15.294;2023-07-20T06:49:26;25.10;51.70
65038;DHT22;51605;47.040;15.294;2023-07-20T06:51:51;25.10;51.80
65038;DHT22;51605;47.040;15.294;2023-07-20T06:54:17;25.10;52.00
65038;DHT22;51605;47.040;15.294;2023-07-20T06:56:43;25.10;51.80
65038;DHT22;51605;47.040;15.294;2023-07-20T06:59:08;25.10;51.70
65038;DHT22;51605;47.040;15.294;2023-07-20T07:01:34;25.10;51.60
65038;DHT22;51605;47.040;15.294;2023-07-20T07:03:59;25.10;51.70
65038;DHT22;51605;47.040;15.294;2023-07-20T07:06:25;25.10;51.80
65038;DHT22;51605;47.040;15.294;2023-07-20T07:08:51;25.10;51.90
65038;DHT22;51605;47.040;15.294;2023-07-20T07:11:17;25.10;51.70
65038;DHT22;51605;47.040;15.294;2023-07-20T07:13:43;25.10;51.70
65038;DHT22;51605;47.040;15.294;2023-07-20T07:16:08;25.10;51.70
65038;DHT22;51605;47.040;15.294;2023-07-20T07:18:34;25.10;51.60
65038;DHT22;51605;47.040;15.294;2023-07-20T07:20:59;25.10;51.50
65038;DHT22;51605;47.040;15.294;2023-07-20T07:23:25;25.10;51.50
65038;DHT22;51605;47.040;15.294;2023-07-20T07:25:50;25.10;51.50
65038;DHT22;51605;47.040;15.294;2023-07-20T07:28:16;25.10;52.50
65038;DHT22;51605;47.040;15.294;2023-07-20T07:30:41;25.10;51.60
65038;DHT22;51605;47.040;15.294;2023-07-20T07:33:07;25.10;51.60
65038;DHT22;51605;47.040;15.294;2023-07-20T07:35:32;25.10;51.50
65038;DHT22;51605;47.040;15.294;2023-07-20T07:37:58;25.10;51.50
65038;DHT22;51605;47.040;15.294;2023-07-20T07:40:24;25.10;51.50
65038;DHT22;51605;47.040;15.294;2023-07-20T07:42:49;25.10;51.60
65038;DHT22;51605;47.040;15.294;2023-07-20T07:45:15;25.10;51.50
65038;DHT22;51605;47.040;15.294;2023-07-20T07:47:41;25.10;51.60
65038;DHT22;51605;47.040;15.294;2023-07-20T07:50:07;25.10;51.60
65038;DHT22;51605;47.040;15.294;2023-07-20T07:52:32;25.10;51.60
65038;DHT22;51605;47.040;15.294;2023-07-20T07:54:58;25.10;51.70
65038;DHT22;51605;47.040;15.294;2023-07-20T07:57:24;25.10;51.70
65038;DHT22;51605;47.040;15.294;2023-07-20T07:59:50;25.00;51.80
65038;DHT22;51605;47.040;15.294;2023-07-20T08:02:15;25.10;51.80
65038;DHT22;51605;47.040;15.294;2023-07-20T08:04:41;25.10;51.80
65038;DHT22;51605;47.040;15.294;2023-07-20T08:07:07;25.00;51.70
65038;DHT22;51605;47.040;15.294;2023-07-20T08:09:32;25.10;52.70
65038;DHT22;51605;47.040;15.294;2023-07-20T08:11:58;25.10;51.70
65038;DHT22;51605;47.040;15.294;2023-07-20T08:14:23;25.00;51.70
65038;DHT22;51605;47.040;15.294;2023-07-20T08:16:50;25.00;51.80
65038;DHT22;51605;47.040;15.294;2023-07-20T08:19:15;25.00;51.90
65038;DHT22;51605;47.040;15.294;2023-07-20T08:21:41;25.00;51.90
65038;DHT22;51605;47.040;15.294;2023-07-20T08:24:06;25.00;51.90
65038;DHT22;51605;47.040;15.294;2023-07-20T08:26:32;25.00;51.90
65038;DHT22;51605;47.040;15.294;2023-07-20T08:28:58;25.00;51.80
65038;DHT22;51605;47.040;15.294;2023-07-20T08:31:23;25.00;51.90
65038;DHT22;51605;47.040;15.294;2023-07-20T08:33:48;25.00;51.90
65038;DHT22;51605;47.040;15.294;2023-07-20T08:36:14;25.00;51.90
65038;DHT22;51605;47.040;15.294;2023-07-20T08:38:39;25.00;51.90
65038;DHT22;51605;47.040;15.294;2023-07-20T08:41:05;25.00;51.70
65038;DHT22;51605;47.040;15.294;2023-07-20T08:43:30;25.00;51.70
65038;DHT22;51605;47.040;15.294;2023-07-20T08:45:56;25.00;51.60
65038;DHT22;51605;47.040;15.294;2023-07-20T08:48:22;25.00;51.70
65038;DHT22;51605;47.040;15.294;2023-07-20T08:50:49;25.00;51.80
65038;DHT22;51605;47.040;15.294;2023-07-20T08:53:16;25.00;51.90
65038;DHT22;51605;47.040;15.294;2023-07-20T08:55:42;25.00;51.80
65038;DHT22;51605;47.040;15.294;2023-07-20T08:58:09;25.00;51.90
65038;DHT22;51605;47.040;15.294;2023-07-20T09:00:36;25.00;51.90
65038;DHT22;51605;47.040;15.294;2023-07-20T09:03:02;25.00;51.90
65038;DHT22;51605;47.040;15.294;2023-07-20T09:05:28;25.00;51.90
65038;DHT22;51605;47.040;15.294;2023-07-20T09:07:53;25.00;51.90
65038;DHT22;51605;47.040;15.294;2023-07-20T09:10:22;25.00;52.80
65038;DHT22;51605;47.040;15.294;2023-07-20T09:12:48;25.00;51.80
65038;DHT22;51605;47.040;15.294;2023-07-20T09:15:14;25.00;51.80
65038;DHT22;51605;47.040;15.294;2023-07-20T09:17:45;25.00;51.80
65038;DHT22;51605;47.040;15.294;2023-07-20T09:20:10;25.00;51.80
65038;DHT22;51605;47.040;15.294;2023-07-20T09:22:36;25.00;51.90
65038;DHT22;51605;47.040;15.294;2023-07-20T09:25:14;25.00;51.80
65038;DHT22;51605;47.040;15.294;2023-07-20T09:27:40;25.00;51.70
65038;DHT22;51605;47.040;15.294;2023-07-20T09:30:06;25.00;51.60
65038;DHT22;51605;47.040;15.294;2023-07-20T09:32:40;25.00;51.70
65038;DHT22;51605;47.040;15.294;2023-07-20T09:35:07;25.00;51.80
65038;DHT22;51605;47.040;15.294;2023-07-20T09:37:37;25.00;51.80
65038;DHT22;51605;47.040;15.294;2023-07-20T09:40:03;25.00;51.70
65038;DHT22;51605;47.040;15.294;2023-07-20T09:42:31;25.00;51.70
65038;DHT22;51605;47.040;15.294;2023-07-20T09:44:56;25.00;52.80
65038;DHT22;51605;47.040;15.294;2023-07-20T09:47:22;25.00;51.90
65038;DHT22;51605;47.040;15.294;2023-07-20T09:49:48;25.00;51.80
65038;DHT22;51605;47.040;15.294;2023-07-20T09:52:14;25.00;51.60
65038;DHT22;51605;47.040;15.294;2023-07-20T09:54:40;25.10;51.60
65038;DHT22;51605;47.040;15.294;2023-07-20T09:57:06;25.00;51.50
65038;DHT22;51605;47.040;15.294;2023-07-20T09:59:33;25.00;51.60
65038;DHT22;51605;47.040;15.294;2023-07-20T10:01:58;25.10;51.50
65038;DHT22;51605;47.040;15.294;2023-07-20T10:04:25;25.10;51.50
65038;DHT22;51605;47.040;15.294;2023-07-20T10:06:51;25.00;51.50
65038;DHT22;51605;47.040;15.294;2023-07-20T10:09:19;25.10;51.50
65038;DHT22;51605;47.040;15.294;2023-07-20T10:11:48;25.00;51.50
65038;DHT22;51605;47.040;15.294;2023-07-20T10:14:16;25.10;51.60
65038;DHT22;51605;47.040;15.294;2023-07-20T10:16:46;25.00;51.50
65038;DHT22;51605;47.040;15.294;2023-07-20T10:21:47;25.00;51.50
65038;DHT22;51605;47.040;15.294;2023-07-20T10:24:13;25.00;51.50
65038;DHT22;51605;47.040;15.294;2023-07-20T10:26:38;25.00;51.60
65038;DHT22;51605;47.040;15.294;2023-07-20T10:29:04;25.00;51.60
65038;DHT22;51605;47.040;15.294;2023-07-20T10:31:31;25.00;51.70
65038;DHT22;51605;47.040;15.294;2023-07-20T10:33:57;25.00;51.70
65038;DHT22;51605;47.040;15.294;2023-07-20T10:36:26;25.00;51.70
65038;DHT22;51605;47.040;15.294;2023-07-20T10:38:55;24.90;51.80
65038;DHT22;51605;47.040;15.294;2023-07-20T10:41:26;25.00;51.80
65038;DHT22;51605;47.040;15.294;2023-07-20T10:43:55;25.00;51.90
65038;DHT22;51605;47.040;15.294;2023-07-20T10:49:04;25.00;51.60
65038;DHT22;51605;47.040;15.294;2023-07-20T10:51:30;25.00;51.70
65038;DHT22;51605;47.040;15.294;2023-07-20T10:53:56;25.00;51.70
65038;DHT22;51605;47.040;15.294;2023-07-20T10:56:24;25.00;51.80
65038;DHT22;51605;47.040;15.294;2023-07-20T10:58:54;24.90;51.70
65038;DHT22;51605;47.040;15.294;2023-07-20T11:01:20;25.00;51.80
65038;DHT22;51605;47.040;15.294;2023-07-20T11:03:49;25.00;51.80
65038;DHT22;51605;47.040;15.294;2023-07-20T11:11:25;24.90;51.80
65038;DHT22;51605;47.040;15.294;2023-07-20T11:14:00;24.90;51.90
65038;DHT22;51605;47.040;15.294;2023-07-20T11:19:17;24.90;51.90
65038;DHT22;51605;47.040;15.294;2023-07-20T11:21:44;24.90;51.90
65038;DHT22;51605;47.040;15.294;2023-07-20T11:24:10;24.90;51.90
65038;DHT22;51605;47.040;15.294;2023-07-20T11:26:42;24.90;51.90
65038;DHT22;51605;47.040;15.294;2023-07-20T11:29:08;24.90;51.90
65038;DHT22;51605;47.040;15.294;2023-07-20T11:31:40;24.90;51.80
65038;DHT22;51605;47.040;15.294;2023-07-20T11:34:07;24.90;51.80
65038;DHT22;51605;47.040;15.294;2023-07-20T11:36:33;24.90;51.80
65038;DHT22;51605;47.040;15.294;2023-07-20T11:38:58;24.90;51.80
65038;DHT22;51605;47.040;15.294;2023-07-20T11:41:24;24.90;51.80
65038;DHT22;51605;47.040;15.294;2023-07-20T11:43:50;24.90;51.80
65038;DHT22;51605;47.040;15.294;2023-07-20T11:46:15;24.90;51.80
65038;DHT22;51605;47.040;15.294;2023-07-20T11:48:41;24.90;51.80
65038;DHT22;51605;47.040;15.294;2023-07-20T11:51:12;24.90;51.80
65038;DHT22;51605;47.040;15.294;2023-07-20T11:53:38;24.90;51.80
65038;DHT22;51605;47.040;15.294;2023-07-20T11:56:03;24.90;51.80
65038;DHT22;51605;47.040;15.294;2023-07-20T11:58:30;24.90;51.80
65038;DHT22;51605;47.040;15.294;2023-07-20T12:00:56;24.90;51.70
65038;DHT22;51605;47.040;15.294;2023-07-20T12:03:21;24.90;51.80
65038;DHT22;51605;47.040;15.294;2023-07-20T12:05:47;24.90;51.80
65038;DHT22;51605;47.040;15.294;2023-07-20T12:08:12;25.00;51.80
65038;DHT22;51605;47.040;15.294;2023-07-20T12:10:39;24.90;51.70
65038;DHT22;51605;47.040;15.294;2023-07-20T12:13:09;24.90;51.70
65038;DHT22;51605;47.040;15.294;2023-07-20T12:15:35;24.90;51.70
65038;DHT22;51605;47.040;15.294;2023-07-20T12:18:01;24.90;51.80
65038;DHT22;51605;47.040;15.294;2023-07-20T12:20:31;24.90;51.80
65038;DHT22;51605;47.040;15.294;2023-07-20T12:23:00;24.90;51.80
65038;DHT22;51605;47.040;15.294;2023-07-20T12:25:32;24.90;51.80
65038;DHT22;51605;47.040;15.294;2023-07-20T12:28:00;24.90;51.80
65038;DHT22;51605;47.040;15.294;2023-07-20T12:30:26;24.90;51.80
65038;DHT22;51605;47.040;15.294;2023-07-20T12:32:51;24.90;51.90
65038;DHT22;51605;47.040;15.294;2023-07-20T12:35:17;24.90;51.80
65038;DHT22;51605;47.040;15.294;2023-07-20T12:37:42;24.90;51.80
65038;DHT22;51605;47.040;15.294;2023-07-20T12:40:08;24.90;51.80
65038;DHT22;51605;47.040;15.294;2023-07-20T12:42:36;24.90;51.80
65038;DHT22;51605;47.040;15.294;2023-07-20T12:45:01;24.90;51.80
65038;DHT22;51605;47.040;15.294;2023-07-20T12:47:27;24.90;51.80
65038;DHT22;51605;47.040;15.294;2023-07-20T12:49:52;24.90;51.80
65038;DHT22;51605;47.040;15.294;2023-07-20T12:52:18;24.90;51.80
65038;DHT22;51605;47.040;15.294;2023-07-20T12:54:43;24.90;51.80
65038;DHT22;51605;47.040;15.294;2023-07-20T12:57:09;24.90;51.80
65038;DHT22;51605;47.040;15.294;2023-07-20T12:59:34;24.90;51.80
65038;DHT22;51605;47.040;15.294;2023-07-20T13:02:00;24.90;51.80
65038;DHT22;51605;47.040;15.294;2023-07-20T13:04:25;24.90;51.80
65038;DHT22;51605;47.040;15.294;2023-07-20T13:06:51;24.90;51.80
65038;DHT22;51605;47.040;15.294;2023-07-20T13:09:16;24.90;51.80
65038;DHT22;51605;47.040;15.294;2023-07-20T13:11:42;24.80;51.80
65038;DHT22;51605;47.040;15.294;2023-07-20T13:14:08;24.90;51.90
65038;DHT22;51605;47.040;15.294;2023-07-20T13:16:34;24.90;51.90
65038;DHT22;51605;47.040;15.294;2023-07-20T13:19:00;24.80;51.90
65038;DHT22;51605;47.040;15.294;2023-07-20T13:21:26;24.80;51.80
65038;DHT22;51605;47.040;15.294;2023-07-20T13:23:51;24.90;51.90
65038;DHT22;51605;47.040;15.294;2023-07-20T13:26:17;24.90;51.80
65038;DHT22;51605;47.040;15.294;2023-07-20T13:28:42;24.90;51.80
65038;DHT22;51605;47.040;15.294;2023-07-20T13:31:08;24.90;51.80
65038;DHT22;51605;47.040;15.294;2023-07-20T13:33:36;24.90;51.80
65038;DHT22;51605;47.040;15.294;2023-07-20T13:36:01;24.90;51.90
65038;DHT22;51605;47.040;15.294;2023-07-20T13:38:27;24.80;51.80
65038;DHT22;51605;47.040;15.294;2023-07-20T13:40:52;24.80;51.80
65038;DHT22;51605;47.040;15.294;2023-07-20T13:43:18;24.90;51.90
65038;DHT22;51605;47.040;15.294;2023-07-20T13:45:44;24.90;51.80
65038;DHT22;51605;47.040;15.294;2023-07-20T13:48:09;24.90;51.80
65038;DHT22;51605;47.040;15.294;2023-07-20T13:50:35;24.90;51.80
65038;DHT22;51605;47.040;15.294;2023-07-20T13:53:00;24.90;51.80
65038;DHT22;51605;47.040;15.294;2023-07-20T13:55:28;24.90;51.80
65038;DHT22;51605;47.040;15.294;2023-07-20T13:57:53;24.90;51.80
65038;DHT22;51605;47.040;15.294;2023-07-20T14:00:19;24.90;51.80
65038;DHT22;51605;47.040;15.294;2023-07-20T14:02:44;24.90;51.80
65038;DHT22;51605;47.040;15.294;2023-07-20T14:05:10;24.90;51.80
65038;DHT22;51605;47.040;15.294;2023-07-20T14:07:35;24.90;51.80
65038;DHT22;51605;47.040;15.294;2023-07-20T14:10:01;24.90;51.80
65038;DHT22;51605;47.040;15.294;2023-07-20T14:12:27;24.90;51.80
65038;DHT22;51605;47.040;15.294;2023-07-20T14:14:54;24.90;52.70
65038;DHT22;51605;47.040;15.294;2023-07-20T14:17:19;24.90;51.80
65038;DHT22;51605;47.040;15.294;2023-07-20T14:19:45;24.90;51.70
65038;DHT22;51605;47.040;15.294;2023-07-20T14:22:11;24.90;51.70
65038;DHT22;51605;47.040;15.294;2023-07-20T14:24:36;24.90;51.70
65038;DHT22;51605;47.040;15.294;2023-07-20T14:27:01;24.90;51.60
65038;DHT22;51605;47.040;15.294;2023-07-20T14:29:27;24.90;51.70
65038;DHT22;51605;47.040;15.294;2023-07-20T14:31:56;24.90;51.70
65038;DHT22;51605;47.040;15.294;2023-07-20T14:34:22;24.90;51.70
65038;DHT22;51605;47.040;15.294;2023-07-20T14:36:48;24.90;51.60
65038;DHT22;51605;47.040;15.294;2023-07-20T14:39:15;24.90;52.60
65038;DHT22;51605;47.040;15.294;2023-07-20T14:41:40;24.90;51.60
65038;DHT22;51605;47.040;15.294;2023-07-20T14:44:06;24.90;51.60
65038;DHT22;51605;47.040;15.294;2023-07-20T14:46:31;24.90;51.60
65038;DHT22;51605;47.040;15.294;2023-07-20T14:48:57;24.90;51.70
65038;DHT22;51605;47.040;15.294;2023-07-20T14:51:23;24.90;51.70
65038;DHT22;51605;47.040;15.294;2023-07-20T14:53:49;24.90;51.80
65038;DHT22;51605;47.040;15.294;2023-07-20T14:56:14;24.90;51.70
65038;DHT22;51605;47.040;15.294;2023-07-20T14:58:40;24.90;51.80
65038;DHT22;51605;47.040;15.294;2023-07-20T15:01:05;24.90;51.70
65038;DHT22;51605;47.040;15.294;2023-07-20T15:03:31;24.90;51.80
65038;DHT22;51605;47.040;15.294;2023-07-20T15:05:56;24.90;51.80
65038;DHT22;51605;47.040;15.294;2023-07-20T15:08:22;24.90;51.80
65038;DHT22;51605;47.040;15.294;2023-07-20T15:10:48;24.90;51.70
65038;DHT22;51605;47.040;15.294;2023-07-20T15:13:14;24.90;51.80
65038;DHT22;51605;47.040;15.294;2023-07-20T15:15:40;24.90;51.70
65038;DHT22;51605;47.040;15.294;2023-07-20T15:18:05;24.90;51.70
65038;DHT22;51605;47.040;15.294;2023-07-20T15:20:31;24.90;51.70
65038;DHT22;51605;47.040;15.294;2023-07-20T15:22:58;24.90;51.80
65038;DHT22;51605;47.040;15.294;2023-07-20T15:25:23;24.90;51.80
65038;DHT22;51605;47.040;15.294;2023-07-20T15:27:49;24.80;51.70
65038;DHT22;51605;47.040;15.294;2023-07-20T15:30:15;24.90;51.80
65038;DHT22;51605;47.040;15.294;2023-07-20T15:32:40;24.90;51.80